sensor_id;sensor_type;location;lat;lon;timestamp;P1;durP1;ratioP1;P2;durP2;ratioP2
19969;SDS011;10146;47.754;9.566;2024-03-02T00:02:12;16.92;;;15.18;;
19969;SDS011;10146;47.754;9.566;2024-03-02T00:04:39;16.25;;;14.65;;
19969;SDS011;10146;47.754;9.566;2024-03-02T00:07:04;17.35;;;15.60;;
19969;SDS011;10146;47.754;9.566;2024-03-02T00:09:31;15.35;;;13.95;;
19969;SDS011;10146;47.754;9.566;2024-03-02T00:12:00;15.05;;;13.55;;
19969;SDS011;10146;47.754;9.566;2024-03-02T00:14:28;15.48;;;13.88;;
19969;SDS011;10146;47.754;9.566;2024-03-02T00:16:55;13.80;;;12.48;;
19969;SDS011;10146;47.754;9.566;2024-03-02T00:19:21;14.65;;;13.30;;
19969;SDS011;10146;47.754;9.566;2024-03-02T00:21:47;13.82;;;12.48;;
19969;SDS011;10146;47.754;9.566;2024-03-02T00:24:20;14.55;;;13.10;;
19969;SDS011;10146;47.754;9.566;2024-03-02T00:26:49;13.35;;;12.05;;
19969;SDS011;10146;47.754;9.566;2024-03-02T00:29:15;13.43;;;12.13;;
19969;SDS011;10146;47.754;9.566;2024-03-02T00:31:43;13.30;;;11.88;;
19969;SDS011;10146;47.754;9.566;2024-03-02T00:34:09;14.02;;;12.63;;
19969;SDS011;10146;47.754;9.566;2024-03-02T00:36:38;14.45;;;13.10;;
19969;SDS011;10146;47.754;9.566;2024-03-02T00:39:04;13.60;;;12.30;;
19969;SDS011;10146;47.754;9.566;2024-03-02T00:41:32;13.43;;;12.13;;
19969;SDS011;10146;47.754;9.566;2024-03-02T00:43:59;13.13;;;11.95;;
19969;SDS011;10146;47.754;9.566;2024-03-02T00:46:37;14.02;;;12.35;;
19969;SDS011;10146;47.754;9.566;2024-03-02T00:51:48;12.85;;;11.55;;
19969;SDS011;10146;47.754;9.566;2024-03-02T00:54:15;12.23;;;11.02;;
19969;SDS011;10146;47.754;9.566;2024-03-02T00:56:50;12.75;;;11.60;;
19969;SDS011;10146;47.754;9.566;2024-03-02T00:59:16;15.27;;;13.68;;
19969;SDS011;10146;47.754;9.566;2024-03-02T01:01:43;15.50;;;13.90;;
19969;SDS011;10146;47.754;9.566;2024-03-02T01:04:08;14.80;;;13.30;;
19969;SDS011;10146;47.754;9.566;2024-03-02T01:06:34;14.93;;;13.52;;
19969;SDS011;10146;47.754;9.566;2024-03-02T01:09:00;16.20;;;14.55;;
19969;SDS011;10146;47.754;9.566;2024-03-02T01:11:27;16.73;;;15.02;;
19969;SDS011;10146;47.754;9.566;2024-03-02T01:13:53;15.48;;;14.07;;
19969;SDS011;10146;47.754;9.566;2024-03-02T01:16:19;14.00;;;12.60;;
19969;SDS011;10146;47.754;9.566;2024-03-02T01:18:44;15.52;;;14.00;;
19969;SDS011;10146;47.754;9.566;2024-03-02T01:21:10;14.13;;;12.82;;
19969;SDS011;10146;47.754;9.566;2024-03-02T01:23:36;15.38;;;13.85;;
19969;SDS011;10146;47.754;9.566;2024-03-02T01:26:01;14.73;;;13.30;;
19969;SDS011;10146;47.754;9.566;2024-03-02T01:28:27;16.55;;;14.93;;
19969;SDS011;10146;47.754;9.566;2024-03-02T01:30:53;17.52;;;15.82;;
19969;SDS011;10146;47.754;9.566;2024-03-02T01:33:19;18.15;;;16.33;;
19969;SDS011;10146;47.754;9.566;2024-03-02T01:35:46;19.17;;;17.27;;
19969;SDS011;10146;47.754;9.566;2024-03-02T01:38:12;18.63;;;16.77;;
19969;SDS011;10146;47.754;9.566;2024-03-02T01:40:38;18.77;;;16.85;;
19969;SDS011;10146;47.754;9.566;2024-03-02T01:43:04;16.98;;;15.23;;
19969;SDS011;10146;47.754;9.566;2024-03-02T01:45:30;17.55;;;15.68;;
19969;SDS011;10146;47.754;9.566;2024-03-02T01:47:56;16.08;;;14.57;;
19969;SDS011;10146;47.754;9.566;2024-03-02T01:50:26;17.88;;;15.27;;
19969;SDS011;10146;47.754;9.566;2024-03-02T01:52:52;17.27;;;15.57;;
19969;SDS011;10146;47.754;9.566;2024-03-02T01:55:18;16.50;;;14.85;;
19969;SDS011;10146;47.754;9.566;2024-03-02T01:57:44;16.25;;;14.65;;
19969;SDS011;10146;47.754;9.566;2024-03-02T02:00:10;15.70;;;14.18;;
19969;SDS011;10146;47.754;9.566;2024-03-02T02:02:36;14.23;;;12.82;;
19969;SDS011;10146;47.754;9.566;2024-03-02T02:05:02;15.52;;;14.02;;
19969;SDS011;10146;47.754;9.566;2024-03-02T02:07:28;16.00;;;14.35;;
19969;SDS011;10146;47.754;9.566;2024-03-02T02:09:54;16.08;;;14.48;;
19969;SDS011;10146;47.754;9.566;2024-03-02T02:12:19;17.05;;;15.35;;
19969;SDS011;10146;47.754;9.566;2024-03-02T02:14:48;15.68;;;14.20;;
19969;SDS011;10146;47.754;9.566;2024-03-02T02:17:15;14.55;;;13.15;;
19969;SDS011;10146;47.754;9.566;2024-03-02T02:19:41;14.35;;;12.85;;
19969;SDS011;10146;47.754;9.566;2024-03-02T02:22:07;14.25;;;12.85;;
19969;SDS011;10146;47.754;9.566;2024-03-02T02:24:33;14.23;;;12.85;;
19969;SDS011;10146;47.754;9.566;2024-03-02T02:26:59;14.98;;;13.50;;
19969;SDS011;10146;47.754;9.566;2024-03-02T02:29:24;17.25;;;14.82;;
19969;SDS011;10146;47.754;9.566;2024-03-02T02:31:50;15.10;;;13.07;;
19969;SDS011;10146;47.754;9.566;2024-03-02T02:34:16;15.68;;;14.07;;
19969;SDS011;10146;47.754;9.566;2024-03-02T02:36:41;15.80;;;14.20;;
19969;SDS011;10146;47.754;9.566;2024-03-02T02:39:09;15.10;;;13.48;;
19969;SDS011;10146;47.754;9.566;2024-03-02T02:41:38;15.60;;;13.75;;
19969;SDS011;10146;47.754;9.566;2024-03-02T02:44:04;14.30;;;12.90;;
19969;SDS011;10146;47.754;9.566;2024-03-02T02:46:29;14.48;;;12.98;;
19969;SDS011;10146;47.754;9.566;2024-03-02T02:48:55;14.00;;;12.70;;
19969;SDS011;10146;47.754;9.566;2024-03-02T02:51:21;13.55;;;12.25;;
19969;SDS011;10146;47.754;9.566;2024-03-02T02:53:46;13.88;;;12.48;;
19969;SDS011;10146;47.754;9.566;2024-03-02T02:56:12;14.45;;;13.07;;
19969;SDS011;10146;47.754;9.566;2024-03-02T02:58:39;15.52;;;14.02;;
19969;SDS011;10146;47.754;9.566;2024-03-02T03:01:06;13.95;;;12.55;;
19969;SDS011;10146;47.754;9.566;2024-03-02T03:03:32;14.05;;;12.65;;
19969;SDS011;10146;47.754;9.566;2024-03-02T03:05:58;14.80;;;13.40;;
19969;SDS011;10146;47.754;9.566;2024-03-02T03:08:24;15.35;;;13.85;;
19969;SDS011;10146;47.754;9.566;2024-03-02T03:10:49;16.98;;;15.27;;
19969;SDS011;10146;47.754;9.566;2024-03-02T03:13:15;16.60;;;14.90;;
19969;SDS011;10146;47.754;9.566;2024-03-02T03:15:41;16.25;;;14.60;;
19969;SDS011;10146;47.754;9.566;2024-03-02T03:18:06;16.42;;;14.63;;
19969;SDS011;10146;47.754;9.566;2024-03-02T03:20:32;17.13;;;15.38;;
19969;SDS011;10146;47.754;9.566;2024-03-02T03:22:58;16.35;;;14.75;;
19969;SDS011;10146;47.754;9.566;2024-03-02T03:25:25;20.48;;;16.08;;
19969;SDS011;10146;47.754;9.566;2024-03-02T03:27:50;16.77;;;15.07;;
19969;SDS011;10146;47.754;9.566;2024-03-02T03:30:19;18.70;;;16.42;;
19969;SDS011;10146;47.754;9.566;2024-03-02T03:32:44;16.88;;;15.07;;
19969;SDS011;10146;47.754;9.566;2024-03-02T03:35:10;17.38;;;15.57;;
19969;SDS011;10146;47.754;9.566;2024-03-02T03:37:38;18.08;;;16.13;;
19969;SDS011;10146;47.754;9.566;2024-03-02T03:40:03;17.15;;;15.38;;
19969;SDS011;10146;47.754;9.566;2024-03-02T03:42:35;16.42;;;14.73;;
19969;SDS011;10146;47.754;9.566;2024-03-02T03:45:04;18.67;;;16.30;;
19969;SDS011;10146;47.754;9.566;2024-03-02T03:47:33;17.40;;;15.60;;
19969;SDS011;10146;47.754;9.566;2024-03-02T03:49:59;18.27;;;15.43;;
19969;SDS011;10146;47.754;9.566;2024-03-02T03:52:24;16.50;;;14.82;;
19969;SDS011;10146;47.754;9.566;2024-03-02T03:54:50;17.15;;;15.35;;
19969;SDS011;10146;47.754;9.566;2024-03-02T03:57:16;15.45;;;13.90;;
19969;SDS011;10146;47.754;9.566;2024-03-02T03:59:42;16.20;;;14.50;;
19969;SDS011;10146;47.754;9.566;2024-03-02T04:02:08;16.50;;;14.38;;
19969;SDS011;10146;47.754;9.566;2024-03-02T04:04:34;16.60;;;14.77;;
19969;SDS011;10146;47.754;9.566;2024-03-02T04:07:00;18.55;;;15.57;;
19969;SDS011;10146;47.754;9.566;2024-03-02T04:09:26;15.70;;;14.07;;
19969;SDS011;10146;47.754;9.566;2024-03-02T04:11:52;15.27;;;13.70;;
19969;SDS011;10146;47.754;9.566;2024-03-02T04:14:18;15.70;;;14.20;;
19969;SDS011;10146;47.754;9.566;2024-03-02T04:16:43;16.98;;;15.27;;
19969;SDS011;10146;47.754;9.566;2024-03-02T04:19:09;16.98;;;15.23;;
19969;SDS011;10146;47.754;9.566;2024-03-02T04:21:34;15.27;;;13.68;;
19969;SDS011;10146;47.754;9.566;2024-03-02T04:24:00;17.27;;;15.48;;
19969;SDS011;10146;47.754;9.566;2024-03-02T04:26:26;17.55;;;15.75;;
19969;SDS011;10146;47.754;9.566;2024-03-02T04:28:52;16.65;;;14.85;;
19969;SDS011;10146;47.754;9.566;2024-03-02T04:31:17;17.30;;;15.48;;
19969;SDS011;10146;47.754;9.566;2024-03-02T04:33:43;16.23;;;14.55;;
19969;SDS011;10146;47.754;9.566;2024-03-02T04:36:09;15.32;;;13.75;;
19969;SDS011;10146;47.754;9.566;2024-03-02T04:38:35;15.52;;;13.98;;
19969;SDS011;10146;47.754;9.566;2024-03-02T04:41:01;16.25;;;14.52;;
19969;SDS011;10146;47.754;9.566;2024-03-02T04:43:27;16.35;;;14.63;;
19969;SDS011;10146;47.754;9.566;2024-03-02T04:45:52;15.88;;;14.27;;
19969;SDS011;10146;47.754;9.566;2024-03-02T04:48:18;15.57;;;13.98;;
19969;SDS011;10146;47.754;9.566;2024-03-02T04:50:44;15.63;;;14.10;;
19969;SDS011;10146;47.754;9.566;2024-03-02T04:53:10;15.27;;;13.77;;
19969;SDS011;10146;47.754;9.566;2024-03-02T04:55:35;15.82;;;14.23;;
19969;SDS011;10146;47.754;9.566;2024-03-02T04:58:03;15.95;;;14.35;;
19969;SDS011;10146;47.754;9.566;2024-03-02T05:00:29;15.95;;;14.23;;
19969;SDS011;10146;47.754;9.566;2024-03-02T05:02:55;15.75;;;13.82;;
19969;SDS011;10146;47.754;9.566;2024-03-02T05:05:20;17.40;;;14.15;;
19969;SDS011;10146;47.754;9.566;2024-03-02T05:07:46;16.27;;;14.68;;
19969;SDS011;10146;47.754;9.566;2024-03-02T05:10:11;17.77;;;14.85;;
19969;SDS011;10146;47.754;9.566;2024-03-02T05:12:37;17.58;;;15.25;;
19969;SDS011;10146;47.754;9.566;2024-03-02T05:15:09;16.42;;;14.73;;
19969;SDS011;10146;47.754;9.566;2024-03-02T05:17:35;16.88;;;15.13;;
19969;SDS011;10146;47.754;9.566;2024-03-02T05:20:05;17.35;;;15.50;;
19969;SDS011;10146;47.754;9.566;2024-03-02T05:22:38;20.33;;;18.13;;
19969;SDS011;10146;47.754;9.566;2024-03-02T05:25:04;17.92;;;16.02;;
19969;SDS011;10146;47.754;9.566;2024-03-02T05:27:31;19.45;;;16.55;;
19969;SDS011;10146;47.754;9.566;2024-03-02T05:29:57;18.15;;;14.57;;
19969;SDS011;10146;47.754;9.566;2024-03-02T05:32:23;19.60;;;16.48;;
19969;SDS011;10146;47.754;9.566;2024-03-02T05:34:49;19.25;;;17.25;;
19969;SDS011;10146;47.754;9.566;2024-03-02T05:37:15;21.33;;;18.35;;
19969;SDS011;10146;47.754;9.566;2024-03-02T05:39:41;21.15;;;18.02;;
19969;SDS011;10146;47.754;9.566;2024-03-02T05:42:08;23.80;;;18.67;;
19969;SDS011;10146;47.754;9.566;2024-03-02T05:44:34;23.13;;;18.25;;
19969;SDS011;10146;47.754;9.566;2024-03-02T05:47:00;21.42;;;18.20;;
19969;SDS011;10146;47.754;9.566;2024-03-02T05:49:26;18.30;;;16.40;;
19969;SDS011;10146;47.754;9.566;2024-03-02T05:51:51;17.40;;;15.60;;
19969;SDS011;10146;47.754;9.566;2024-03-02T05:54:17;21.10;;;15.88;;
19969;SDS011;10146;47.754;9.566;2024-03-02T05:56:43;21.23;;;16.85;;
19969;SDS011;10146;47.754;9.566;2024-03-02T05:59:09;22.33;;;17.73;;
19969;SDS011;10146;47.754;9.566;2024-03-02T06:01:44;23.52;;;17.40;;
19969;SDS011;10146;47.754;9.566;2024-03-02T06:04:15;20.88;;;16.98;;
19969;SDS011;10146;47.754;9.566;2024-03-02T06:06:41;19.77;;;17.08;;
19969;SDS011;10146;47.754;9.566;2024-03-02T06:09:07;21.48;;;18.95;;
19969;SDS011;10146;47.754;9.566;2024-03-02T06:11:42;20.17;;;17.58;;
19969;SDS011;10146;47.754;9.566;2024-03-02T06:14:08;22.58;;;18.73;;
19969;SDS011;10146;47.754;9.566;2024-03-02T06:16:34;23.50;;;17.90;;
19969;SDS011;10146;47.754;9.566;2024-03-02T06:19:00;19.30;;;17.10;;
19969;SDS011;10146;47.754;9.566;2024-03-02T06:21:26;21.38;;;17.55;;
19969;SDS011;10146;47.754;9.566;2024-03-02T06:23:52;20.38;;;15.60;;
19969;SDS011;10146;47.754;9.566;2024-03-02T06:26:18;26.20;;;20.35;;
19969;SDS011;10146;47.754;9.566;2024-03-02T06:28:44;33.38;;;23.30;;
19969;SDS011;10146;47.754;9.566;2024-03-02T06:31:10;32.50;;;22.85;;
19969;SDS011;10146;47.754;9.566;2024-03-02T06:33:36;25.17;;;19.90;;
19969;SDS011;10146;47.754;9.566;2024-03-02T06:36:01;21.83;;;17.70;;
19969;SDS011;10146;47.754;9.566;2024-03-02T06:38:28;32.75;;;20.80;;
19969;SDS011;10146;47.754;9.566;2024-03-02T06:40:53;42.50;;;24.10;;
19969;SDS011;10146;47.754;9.566;2024-03-02T06:43:20;82.15;;;28.48;;
19969;SDS011;10146;47.754;9.566;2024-03-02T06:45:49;102.75;;;31.48;;
19969;SDS011;10146;47.754;9.566;2024-03-02T06:48:15;76.05;;;30.38;;
19969;SDS011;10146;47.754;9.566;2024-03-02T06:50:45;52.25;;;28.88;;
19969;SDS011;10146;47.754;9.566;2024-03-02T06:53:14;58.08;;;29.08;;
19969;SDS011;10146;47.754;9.566;2024-03-02T06:55:44;57.63;;;28.05;;
19969;SDS011;10146;47.754;9.566;2024-03-02T06:58:11;65.70;;;28.17;;
19969;SDS011;10146;47.754;9.566;2024-03-02T07:00:37;59.28;;;27.20;;
19969;SDS011;10146;47.754;9.566;2024-03-02T07:03:03;39.45;;;26.67;;
19969;SDS011;10146;47.754;9.566;2024-03-02T07:05:29;34.08;;;24.45;;
19969;SDS011;10146;47.754;9.566;2024-03-02T07:07:54;38.88;;;25.88;;
19969;SDS011;10146;47.754;9.566;2024-03-02T07:10:20;44.95;;;24.80;;
19969;SDS011;10146;47.754;9.566;2024-03-02T07:12:45;36.33;;;24.13;;
19969;SDS011;10146;47.754;9.566;2024-03-02T07:15:11;40.92;;;23.05;;
19969;SDS011;10146;47.754;9.566;2024-03-02T07:17:53;40.15;;;23.27;;
19969;SDS011;10146;47.754;9.566;2024-03-02T07:20:19;39.03;;;23.15;;
19969;SDS011;10146;47.754;9.566;2024-03-02T07:22:45;43.33;;;22.65;;
19969;SDS011;10146;47.754;9.566;2024-03-02T07:25:11;35.33;;;23.02;;
19969;SDS011;10146;47.754;9.566;2024-03-02T07:27:37;33.88;;;22.67;;
19969;SDS011;10146;47.754;9.566;2024-03-02T07:30:03;35.20;;;21.52;;
19969;SDS011;10146;47.754;9.566;2024-03-02T07:32:29;29.48;;;21.42;;
19969;SDS011;10146;47.754;9.566;2024-03-02T07:34:55;30.02;;;22.77;;
19969;SDS011;10146;47.754;9.566;2024-03-02T07:37:21;47.88;;;23.38;;
19969;SDS011;10146;47.754;9.566;2024-03-02T07:39:47;37.30;;;23.92;;
19969;SDS011;10146;47.754;9.566;2024-03-02T07:42:13;32.17;;;22.63;;
19969;SDS011;10146;47.754;9.566;2024-03-02T07:44:39;30.02;;;21.73;;
19969;SDS011;10146;47.754;9.566;2024-03-02T07:47:04;32.42;;;21.23;;
19969;SDS011;10146;47.754;9.566;2024-03-02T07:49:31;27.52;;;20.20;;
19969;SDS011;10146;47.754;9.566;2024-03-02T07:51:57;26.30;;;21.17;;
19969;SDS011;10146;47.754;9.566;2024-03-02T07:54:22;33.33;;;21.35;;
19969;SDS011;10146;47.754;9.566;2024-03-02T07:56:48;39.60;;;21.75;;
19969;SDS011;10146;47.754;9.566;2024-03-02T07:59:13;31.27;;;20.98;;
19969;SDS011;10146;47.754;9.566;2024-03-02T08:01:39;43.40;;;22.48;;
19969;SDS011;10146;47.754;9.566;2024-03-02T08:04:05;33.58;;;21.38;;
19969;SDS011;10146;47.754;9.566;2024-03-02T08:06:31;36.50;;;21.50;;
19969;SDS011;10146;47.754;9.566;2024-03-02T08:08:57;56.65;;;22.20;;
19969;SDS011;10146;47.754;9.566;2024-03-02T08:11:23;31.77;;;20.70;;
19969;SDS011;10146;47.754;9.566;2024-03-02T08:13:49;36.83;;;20.73;;
19969;SDS011;10146;47.754;9.566;2024-03-02T08:16:15;39.60;;;22.08;;
19969;SDS011;10146;47.754;9.566;2024-03-02T08:18:44;29.95;;;21.05;;
19969;SDS011;10146;47.754;9.566;2024-03-02T08:21:11;29.00;;;18.73;;
19969;SDS011;10146;47.754;9.566;2024-03-02T08:23:38;28.85;;;19.95;;
19969;SDS011;10146;47.754;9.566;2024-03-02T08:26:05;53.35;;;21.40;;
19969;SDS011;10146;47.754;9.566;2024-03-02T08:28:31;31.95;;;20.15;;
19969;SDS011;10146;47.754;9.566;2024-03-02T08:30:58;27.65;;;19.75;;
19969;SDS011;10146;47.754;9.566;2024-03-02T08:33:23;23.80;;;18.90;;
19969;SDS011;10146;47.754;9.566;2024-03-02T08:35:49;24.55;;;19.42;;
19969;SDS011;10146;47.754;9.566;2024-03-02T08:38:14;28.10;;;18.77;;
19969;SDS011;10146;47.754;9.566;2024-03-02T08:40:40;33.17;;;19.55;;
19969;SDS011;10146;47.754;9.566;2024-03-02T08:43:06;23.33;;;18.13;;
19969;SDS011;10146;47.754;9.566;2024-03-02T08:45:32;23.13;;;17.45;;
19969;SDS011;10146;47.754;9.566;2024-03-02T08:47:59;24.08;;;17.33;;
19969;SDS011;10146;47.754;9.566;2024-03-02T08:50:24;19.30;;;16.80;;
19969;SDS011;10146;47.754;9.566;2024-03-02T08:52:50;21.92;;;16.90;;
19969;SDS011;10146;47.754;9.566;2024-03-02T08:55:15;19.85;;;17.10;;
19969;SDS011;10146;47.754;9.566;2024-03-02T08:57:41;20.50;;;16.90;;
19969;SDS011;10146;47.754;9.566;2024-03-02T09:00:07;21.30;;;17.55;;
19969;SDS011;10146;47.754;9.566;2024-03-02T09:02:33;22.33;;;18.45;;
19969;SDS011;10146;47.754;9.566;2024-03-02T09:04:59;31.15;;;20.33;;
19969;SDS011;10146;47.754;9.566;2024-03-02T09:07:25;24.65;;;20.38;;
19969;SDS011;10146;47.754;9.566;2024-03-02T09:09:50;22.00;;;19.25;;
19969;SDS011;10146;47.754;9.566;2024-03-02T09:12:17;21.80;;;19.13;;
19969;SDS011;10146;47.754;9.566;2024-03-02T09:14:43;24.42;;;19.98;;
19969;SDS011;10146;47.754;9.566;2024-03-02T09:17:09;29.83;;;22.77;;
19969;SDS011;10146;47.754;9.566;2024-03-02T09:19:36;26.55;;;22.50;;
19969;SDS011;10146;47.754;9.566;2024-03-02T09:22:02;23.55;;;21.15;;
19969;SDS011;10146;47.754;9.566;2024-03-02T09:24:30;17.10;;;15.40;;
19969;SDS011;10146;47.754;9.566;2024-03-02T09:26:56;14.98;;;13.20;;
19969;SDS011;10146;47.754;9.566;2024-03-02T09:29:22;14.00;;;12.68;;
19969;SDS011;10146;47.754;9.566;2024-03-02T09:31:47;13.23;;;12.02;;
19969;SDS011;10146;47.754;9.566;2024-03-02T09:34:14;14.05;;;12.65;;
19969;SDS011;10146;47.754;9.566;2024-03-02T09:36:40;13.77;;;12.43;;
19969;SDS011;10146;47.754;9.566;2024-03-02T09:39:07;14.13;;;12.68;;
19969;SDS011;10146;47.754;9.566;2024-03-02T09:41:34;12.73;;;11.52;;
19969;SDS011;10146;47.754;9.566;2024-03-02T09:44:04;12.20;;;10.98;;
19969;SDS011;10146;47.754;9.566;2024-03-02T09:46:30;12.32;;;11.18;;
19969;SDS011;10146;47.754;9.566;2024-03-02T09:48:56;10.55;;;9.55;;
19969;SDS011;10146;47.754;9.566;2024-03-02T09:51:22;10.18;;;9.18;;
19969;SDS011;10146;47.754;9.566;2024-03-02T09:53:48;9.80;;;8.90;;
19969;SDS011;10146;47.754;9.566;2024-03-02T09:56:15;10.05;;;9.05;;
19969;SDS011;10146;47.754;9.566;2024-03-02T09:58:44;10.10;;;9.10;;
19969;SDS011;10146;47.754;9.566;2024-03-02T10:01:09;9.55;;;8.65;;
19969;SDS011;10146;47.754;9.566;2024-03-02T10:03:36;10.30;;;9.30;;
19969;SDS011;10146;47.754;9.566;2024-03-02T10:08:55;9.90;;;8.90;;
19969;SDS011;10146;47.754;9.566;2024-03-02T10:11:28;9.65;;;8.23;;
19969;SDS011;10146;47.754;9.566;2024-03-02T10:16:36;9.15;;;8.25;;
19969;SDS011;10146;47.754;9.566;2024-03-02T10:19:19;9.25;;;7.80;;
19969;SDS011;10146;47.754;9.566;2024-03-02T10:21:49;8.15;;;7.35;;
19969;SDS011;10146;47.754;9.566;2024-03-02T10:24:16;8.18;;;7.38;;
19969;SDS011;10146;47.754;9.566;2024-03-02T10:26:42;8.77;;;7.88;;
19969;SDS011;10146;47.754;9.566;2024-03-02T10:29:09;9.93;;;8.93;;
19969;SDS011;10146;47.754;9.566;2024-03-02T10:31:36;10.68;;;9.65;;
19969;SDS011;10146;47.754;9.566;2024-03-02T10:34:03;12.05;;;10.55;;
19969;SDS011;10146;47.754;9.566;2024-03-02T10:36:28;11.48;;;9.88;;
19969;SDS011;10146;47.754;9.566;2024-03-02T10:38:56;10.60;;;9.55;;
19969;SDS011;10146;47.754;9.566;2024-03-02T10:41:24;9.15;;;8.32;;
19969;SDS011;10146;47.754;9.566;2024-03-02T10:43:52;9.73;;;8.82;;
19969;SDS011;10146;47.754;9.566;2024-03-02T10:46:24;12.10;;;10.80;;
19969;SDS011;10146;47.754;9.566;2024-03-02T10:48:54;10.20;;;9.20;;
19969;SDS011;10146;47.754;9.566;2024-03-02T10:51:20;9.43;;;8.52;;
19969;SDS011;10146;47.754;9.566;2024-03-02T10:53:46;9.25;;;8.35;;
19969;SDS011;10146;47.754;9.566;2024-03-02T10:56:11;10.10;;;7.93;;
19969;SDS011;10146;47.754;9.566;2024-03-02T10:58:44;9.15;;;7.78;;
19969;SDS011;10146;47.754;9.566;2024-03-02T11:01:11;7.45;;;6.75;;
19969;SDS011;10146;47.754;9.566;2024-03-02T11:03:38;8.15;;;7.35;;
19969;SDS011;10146;47.754;9.566;2024-03-02T11:06:07;6.95;;;6.25;;
19969;SDS011;10146;47.754;9.566;2024-03-02T11:08:33;6.68;;;5.80;;
19969;SDS011;10146;47.754;9.566;2024-03-02T11:11:06;5.60;;;5.10;;
19969;SDS011;10146;47.754;9.566;2024-03-02T11:13:35;6.68;;;6.00;;
19969;SDS011;10146;47.754;9.566;2024-03-02T11:16:06;5.22;;;4.78;;
19969;SDS011;10146;47.754;9.566;2024-03-02T11:18:37;4.97;;;4.43;;
19969;SDS011;10146;47.754;9.566;2024-03-02T11:21:04;7.55;;;4.72;;
19969;SDS011;10146;47.754;9.566;2024-03-02T11:23:31;5.10;;;4.60;;
19969;SDS011;10146;47.754;9.566;2024-03-02T11:26:17;4.30;;;3.90;;
19969;SDS011;10146;47.754;9.566;2024-03-02T11:28:43;5.05;;;4.35;;
19969;SDS011;10146;47.754;9.566;2024-03-02T11:31:09;3.80;;;3.50;;
19969;SDS011;10146;47.754;9.566;2024-03-02T11:33:35;4.22;;;3.42;;
19969;SDS011;10146;47.754;9.566;2024-03-02T11:36:00;3.10;;;2.80;;
19969;SDS011;10146;47.754;9.566;2024-03-02T11:38:32;2.92;;;2.70;;
19969;SDS011;10146;47.754;9.566;2024-03-02T11:40:59;3.10;;;2.83;;
19969;SDS011;10146;47.754;9.566;2024-03-02T11:43:32;4.50;;;3.40;;
19969;SDS011;10146;47.754;9.566;2024-03-02T11:46:01;4.05;;;3.20;;
19969;SDS011;10146;47.754;9.566;2024-03-02T11:48:32;3.20;;;3.00;;
19969;SDS011;10146;47.754;9.566;2024-03-02T11:50:58;3.40;;;3.10;;
19969;SDS011;10146;47.754;9.566;2024-03-02T11:53:25;2.78;;;2.40;;
19969;SDS011;10146;47.754;9.566;2024-03-02T11:55:53;3.30;;;3.00;;
19969;SDS011;10146;47.754;9.566;2024-03-02T11:58:20;2.85;;;2.65;;
19969;SDS011;10146;47.754;9.566;2024-03-02T12:00:52;3.10;;;2.80;;
19969;SDS011;10146;47.754;9.566;2024-03-02T12:03:18;3.67;;;3.38;;
19969;SDS011;10146;47.754;9.566;2024-03-02T12:05:48;4.10;;;3.75;;
19969;SDS011;10146;47.754;9.566;2024-03-02T12:08:15;3.45;;;3.08;;
19969;SDS011;10146;47.754;9.566;2024-03-02T12:10:41;3.05;;;2.80;;
19969;SDS011;10146;47.754;9.566;2024-03-02T12:13:07;2.53;;;2.35;;
19969;SDS011;10146;47.754;9.566;2024-03-02T12:15:35;2.10;;;2.00;;
19969;SDS011;10146;47.754;9.566;2024-03-02T12:18:02;3.00;;;2.30;;
19969;SDS011;10146;47.754;9.566;2024-03-02T12:20:29;3.45;;;2.40;;
19969;SDS011;10146;47.754;9.566;2024-03-02T12:23:02;1.90;;;1.80;;
19969;SDS011;10146;47.754;9.566;2024-03-02T12:25:30;1.95;;;1.77;;
19969;SDS011;10146;47.754;9.566;2024-03-02T12:27:59;1.90;;;1.70;;
19969;SDS011;10146;47.754;9.566;2024-03-02T12:30:26;1.80;;;1.70;;
19969;SDS011;10146;47.754;9.566;2024-03-02T12:32:56;2.47;;;1.80;;
19969;SDS011;10146;47.754;9.566;2024-03-02T12:35:21;2.25;;;1.67;;
19969;SDS011;10146;47.754;9.566;2024-03-02T12:37:50;1.30;;;1.20;;
19969;SDS011;10146;47.754;9.566;2024-03-02T12:40:17;1.25;;;1.17;;
19969;SDS011;10146;47.754;9.566;2024-03-02T12:42:44;1.63;;;1.05;;
19969;SDS011;10146;47.754;9.566;2024-03-02T12:45:11;2.35;;;0.82;;
19969;SDS011;10146;47.754;9.566;2024-03-02T12:47:37;1.02;;;1.02;;
19969;SDS011;10146;47.754;9.566;2024-03-02T12:50:05;0.60;;;0.60;;
19969;SDS011;10146;47.754;9.566;2024-03-02T12:52:31;1.65;;;0.70;;
19969;SDS011;10146;47.754;9.566;2024-03-02T12:55:00;0.60;;;0.60;;
19969;SDS011;10146;47.754;9.566;2024-03-02T12:57:29;1.40;;;0.80;;
19969;SDS011;10146;47.754;9.566;2024-03-02T13:00:03;0.60;;;0.60;;
19969;SDS011;10146;47.754;9.566;2024-03-02T13:02:39;0.43;;;0.43;;
19969;SDS011;10146;47.754;9.566;2024-03-02T13:05:06;1.70;;;0.80;;
19969;SDS011;10146;47.754;9.566;2024-03-02T13:07:36;1.95;;;0.70;;
19969;SDS011;10146;47.754;9.566;2024-03-02T13:10:06;1.02;;;0.80;;
19969;SDS011;10146;47.754;9.566;2024-03-02T13:12:35;0.63;;;0.63;;
19969;SDS011;10146;47.754;9.566;2024-03-02T13:15:01;0.47;;;0.40;;
19969;SDS011;10146;47.754;9.566;2024-03-02T13:17:28;0.38;;;0.38;;
19969;SDS011;10146;47.754;9.566;2024-03-02T13:19:58;0.30;;;0.30;;
19969;SDS011;10146;47.754;9.566;2024-03-02T13:22:25;0.38;;;0.38;;
19969;SDS011;10146;47.754;9.566;2024-03-02T13:24:51;0.40;;;0.40;;
19969;SDS011;10146;47.754;9.566;2024-03-02T13:27:19;0.80;;;0.40;;
19969;SDS011;10146;47.754;9.566;2024-03-02T13:29:45;0.60;;;0.60;;
19969;SDS011;10146;47.754;9.566;2024-03-02T13:32:12;0.35;;;0.35;;
19969;SDS011;10146;47.754;9.566;2024-03-02T13:34:38;0.73;;;0.60;;
19969;SDS011;10146;47.754;9.566;2024-03-02T13:37:04;1.65;;;0.70;;
19969;SDS011;10146;47.754;9.566;2024-03-02T13:39:31;0.40;;;0.40;;
19969;SDS011;10146;47.754;9.566;2024-03-02T13:41:59;0.52;;;0.52;;
19969;SDS011;10146;47.754;9.566;2024-03-02T13:44:30;1.27;;;0.80;;
19969;SDS011;10146;47.754;9.566;2024-03-02T13:46:56;0.60;;;0.60;;
19969;SDS011;10146;47.754;9.566;2024-03-02T13:49:23;0.73;;;0.50;;
19969;SDS011;10146;47.754;9.566;2024-03-02T13:51:49;1.77;;;0.60;;
19969;SDS011;10146;47.754;9.566;2024-03-02T13:54:15;0.80;;;0.80;;
19969;SDS011;10146;47.754;9.566;2024-03-02T13:56:40;0.95;;;0.80;;
19969;SDS011;10146;47.754;9.566;2024-03-02T13:59:06;0.60;;;0.50;;
19969;SDS011;10146;47.754;9.566;2024-03-02T14:01:32;1.48;;;0.70;;
19969;SDS011;10146;47.754;9.566;2024-03-02T14:03:58;0.73;;;0.73;;
19969;SDS011;10146;47.754;9.566;2024-03-02T14:06:24;0.90;;;0.70;;
19969;SDS011;10146;47.754;9.566;2024-03-02T14:08:52;0.50;;;0.50;;
19969;SDS011;10146;47.754;9.566;2024-03-02T14:11:18;2.03;;;0.80;;
19969;SDS011;10146;47.754;9.566;2024-03-02T14:13:44;0.50;;;0.50;;
19969;SDS011;10146;47.754;9.566;2024-03-02T14:16:14;0.88;;;0.70;;
19969;SDS011;10146;47.754;9.566;2024-03-02T14:18:40;1.23;;;0.60;;
19969;SDS011;10146;47.754;9.566;2024-03-02T14:21:07;1.15;;;0.90;;
19969;SDS011;10146;47.754;9.566;2024-03-02T14:23:32;0.70;;;0.60;;
19969;SDS011;10146;47.754;9.566;2024-03-02T14:25:58;2.13;;;0.80;;
19969;SDS011;10146;47.754;9.566;2024-03-02T14:28:24;0.93;;;0.70;;
19969;SDS011;10146;47.754;9.566;2024-03-02T14:30:50;0.90;;;0.80;;
19969;SDS011;10146;47.754;9.566;2024-03-02T14:33:15;1.48;;;0.80;;
19969;SDS011;10146;47.754;9.566;2024-03-02T14:35:41;0.77;;;0.68;;